x

Fairweather Ground 105nm West Of Juno, Ak (46083) Wave Buoy

7:50am - Thu 30th Jul 2015 All times are AKDT. -8 hours from GMT.

  • Sig Wave height 3.9ft
  • Swell Direction
  • Peak Period 16s
  • Average Period 6s
  • Wind
    13mph, 16mph gusts
  • Sea Temp 57°f
  • Air Temp 55°f
  • Sea Pressure 1019.5mb
  • Fairweather Ground 105nm West  Of Juno, Ak
  • Fairweather Ground 105nm West  Of Juno, Ak

More Historic Weather Station data

Upgrade to MSW Pro to gain access to the past 30 days of data for over 8000 Wavebouys and Weather Stations around the globe.

Join Pro

Comparision Forecast

View Surf forecast
   
Thu 07/30 7:50am 4ft 16s 6s 13 16 mph 1019.5mb 57f 55f
6:50am 4ft 16s 6s 11 13 mph 1019.5mb 57f 56f
5:50am 4ft 16s 6s 11 13 mph 1019.5mb 57f 56f
4:50am 4ft 16s 7s 9 11 mph 1019.8mb 58f 55f
3:50am 4.5ft 16s 8s 7
mph
1020mb 58f 56f
2:50am 4ft 17s 7s 7
mph
1019.9mb 58f 56f
1:50am 3.5ft 16s 7s 4 7 mph 1020mb 58f 56f
12:50am 3.5ft 16s 7s 2
mph
1019.8mb 58f 57f
Wed 07/29 11:50pm 3.5ft 17s 7s 4
mph
1019.7mb 58f 56f
10:50pm 4.5ft 17s 7s 4
mph
1019.7mb 58f 56f
9:50pm 3.5ft 17s 7s 7 9 mph 1019.6mb 58f 56f
8:50pm 4ft 16s 6s 7
mph
1019.4mb 57f 56f
7:50pm 4.5ft 17s 6s 9 11 mph 1019.3mb 58f 57f
6:50pm 4.5ft 17s 6s 9
mph
1019.2mb 58f 58f
5:50pm 5ft 17s 6s 7 9 mph 1019.2mb 58f 57f
4:50pm 4.5ft 16s 6s 9
mph
1019.3mb 58f 57f
3:50pm 4.5ft 7s 6s 13
mph
1019.3mb 58f 57f
2:50pm 4.5ft 17s 6s 7 9 mph 1019.4mb 58f 57f
1:50pm 4.5ft 8s 6s 9 11 mph 1019.3mb 58f 58f
12:50pm 4ft 17s 6s 9
mph
1019.1mb 57f 58f
11:50am 4.5ft 17s 6s 7 9 mph 1018.8mb 57f 58f
10:50am 4ft 8s 6s 9 11 mph 1018.4mb 57f 57f
9:50am 4.5ft 17s 6s 13 16 mph 1018.1mb 57f 56f
8:50am 4.5ft 17s 6s 13 18 mph 1017.9mb 57f 56f
7:50am 4.5ft 8s 6s 9 11 mph 1017.7mb 57f 56f
6:50am 4.5ft 17s 6s 9 11 mph 1017.5mb 57f 55f
5:50am 4.5ft 17s 6s 11 13 mph 1017.3mb 57f 56f
4:50am 5ft 8s 6s 11 13 mph 1017.2mb 57f 56f
3:50am 4.5ft 17s 6s 11 13 mph 1017mb 57f 56f
2:50am 5ft 8s 6s 11 13 mph 1016.8mb 57f 56f
1:50am 5ft 8s 6s 13 16 mph 1016.7mb 57f 55f
12:50am 5.5ft 8s 6s 11 13 mph 1016.5mb 57f 56f
Tue 07/28 11:50pm 5ft 8s 6s 11 16 mph 1016.3mb 57f 55f
10:50pm 5ft 8s 6s 11 16 mph 1016mb 57f 57f
9:50pm 5ft 8s 7s 9 13 mph 1015.9mb 57f 57f
8:50pm 4.5ft 8s 6s 9 11 mph 1015.8mb 57f 56f
7:50pm 4.5ft 8s 7s 9
mph
1015.7mb 57f 56f
6:50pm 4.5ft 9s 6s 9 11 mph 1015.6mb 57f 56f
5:50pm 4.5ft 8s 6s 9 11 mph 1015.5mb 57f 57f
4:50pm 4.5ft 9s 6s 9
mph
1015.3mb 57f 56f
3:50pm 5ft 9s 6s 13
mph
1015.1mb 57f 56f
2:50pm 5ft 8s 6s 9 11 mph 1014.7mb 57f 57f
1:50pm 5ft 7s 6s 9 11 mph 1014.2mb 57f 57f
12:50pm 5ft 7s 6s 11 13 mph 1013.7mb 57f 56f
11:50am 5.5ft 7s 6s 11 13 mph 1013.3mb 57f 57f
10:50am 5ft 7s 6s 9 11 mph 1013mb 57f 58f
9:50am 5ft 8s 6s 9 11 mph 1012.6mb 57f 57f
8:50am 5ft 8s 6s 9 11 mph 1012.1mb 57f 57f
7:50am 4.5ft 9s 6s 9 11 mph 1011.7mb 57f 56f
6:50am 4.5ft 9s 6s 13 16 mph 1010.8mb 57f 56f
5:50am 4.5ft 9s 6s 9
mph
1009.9mb 57f 56f
4:50am 4.5ft 8s 6s 13
mph
1009.3mb 57f 55f
3:50am 4.5ft 8s 7s 18 20 mph 1008.4mb 56f 55f
2:50am 4.5ft 10s 6s 11
mph
1008.2mb 57f 57f
1:50am 4.5ft 9s 6s 9
mph
1007.8mb 57f 57f
12:50am 5ft 10s 6s 9 11 mph 1007.5mb 57f 56f
Mon 07/27 11:50pm 5ft 10s 6s 11 13 mph 1007.1mb 57f 57f
10:50pm 5.5ft 8s 6s 11
mph
1007.2mb 57f 56f
9:50pm 6ft 9s 6s 11 13 mph 1007mb 57f 56f
8:50pm 5.5ft 9s 6s 13 16 mph 1007mb 57f 56f
7:50pm 4.5ft 9s 6s 13 16 mph 1007.1mb 57f 56f
6:50pm 5ft 10s 7s 11 13 mph 1007.2mb 57f 56f
5:50pm 5ft 10s 7s 16 18 mph 1007.6mb 57f 55f
4:50pm 5ft 10s 7s 9 13 mph 1008.1mb 57f 55f
3:50pm 5ft 10s 7s 7 9 mph 1008.5mb 57f 54f
2:50pm 5ft 10s 7s 2 4 mph 1008.6mb 57f 54f
1:50pm 5ft 10s 7s 4 7 mph 1008.5mb 57f 55f
12:50pm 5ft 10s 7s 7 9 mph 1008.3mb 57f 55f
11:50am 5ft 9s 6s 11
mph
1008.3mb 57f 56f
10:50am 5.5ft 9s 7s 11 13 mph 1008.3mb 57f 56f
9:50am 6ft 9s 7s 9
mph
1008.5mb 57f 56f
8:50am 6.5ft 9s 7s 9 11 mph 1008.5mb 57f 56f
7:50am 6ft 9s 6s 9
mph
1008.7mb 57f 56f
6:50am 5.5ft 8s 6s 7 9 mph 1009mb 57f 56f
5:50am 5ft 8s 6s 9 11 mph 1008.9mb 57f 55f
4:50am 5ft 8s 6s 9 11 mph 1009.2mb 57f 56f
3:50am 5ft 8s 6s 9 11 mph 1009.5mb 57f 55f
2:50am 5ft 8s 6s 9
mph
1009.6mb 57f 56f
1:50am 5ft 6s 5s 9 11 mph 1009.7mb 57f 55f
12:50am 5ft 8s 5s 18 20 mph 1009.3mb 57f 55f
Sun 07/26 11:50pm 4.5ft 6s 5s 20 22 mph 1009.1mb 57f 55f
10:50pm 5ft 6s 5s 11 13 mph 1009.3mb 57f 56f
9:50pm 5ft 6s 5s 13 16 mph 1009.4mb 57f 56f
8:50pm 5ft 6s 5s 13 16 mph 1009.5mb 57f 56f
7:50pm 5ft 5s 5s 13 16 mph 1009.5mb 56f 56f
6:50pm 6ft 5s 5s 13 16 mph 1009.5mb 57f 55f
5:50pm 5.5ft 5s 5s 13 16 mph 1009.7mb 57f 55f